createdAt,value
2019-03-08T00:01:03.079Z,98964.00
2019-03-08T00:03:31.424Z,98972.00
2019-03-08T00:05:59.929Z,98966.00
2019-03-08T00:08:28.485Z,98967.00
2019-03-08T00:10:56.899Z,98975.00
2019-03-08T00:13:25.398Z,98968.00
2019-03-08T00:15:53.970Z,98972.00
2019-03-08T00:18:22.345Z,98974.00
2019-03-08T00:20:50.710Z,98976.00
2019-03-08T00:23:20.628Z,98977.00
2019-03-08T00:25:49.035Z,98987.00
2019-03-08T00:28:17.949Z,98982.00
2019-03-08T00:30:46.431Z,98961.00
2019-03-08T00:33:14.730Z,98969.00
2019-03-08T00:35:43.034Z,98975.00
2019-03-08T00:38:11.812Z,98981.00
2019-03-08T00:40:40.174Z,98987.00
2019-03-08T00:43:08.964Z,98988.00
2019-03-08T00:45:37.314Z,98997.00
2019-03-08T00:48:05.778Z,99001.00
2019-03-08T00:50:34.633Z,99002.00
2019-03-08T00:53:03.627Z,99009.00
2019-03-08T00:55:32.017Z,99015.00
2019-03-08T00:58:02.093Z,99008.00
2019-03-08T01:00:30.648Z,99009.00
2019-03-08T01:02:59.364Z,99016.00
2019-03-08T01:05:27.711Z,99016.00
2019-03-08T01:07:56.087Z,99019.00
2019-03-08T01:10:24.678Z,99015.00
2019-03-08T01:12:53.651Z,99006.00
2019-03-08T01:15:23.078Z,99020.00
2019-03-08T01:17:51.751Z,99020.00
2019-03-08T01:20:20.655Z,99013.00
2019-03-08T01:22:49.270Z,99015.00
2019-03-08T01:25:17.883Z,99017.00
2019-03-08T01:28:21.803Z,99022.00
2019-03-08T01:30:50.554Z,99023.00
2019-03-08T01:33:19.238Z,99025.00
2019-03-08T01:35:47.853Z,99037.00
2019-03-08T01:38:16.296Z,99030.00
2019-03-08T01:40:44.912Z,99034.00
2019-03-08T01:43:13.287Z,99031.00
2019-03-08T01:45:41.821Z,99032.00
2019-03-08T01:48:10.479Z,99032.00
2019-03-08T01:50:38.873Z,99032.00
2019-03-08T01:53:07.225Z,99033.00
2019-03-08T01:55:35.838Z,99039.00
2019-03-08T01:58:04.862Z,99036.00
2019-03-08T02:00:33.212Z,99036.00
2019-03-08T02:03:01.806Z,99037.00
2019-03-08T02:05:30.595Z,99037.00
2019-03-08T02:07:58.967Z,99039.00
2019-03-08T02:10:27.410Z,99040.00
2019-03-08T02:12:55.753Z,99032.00
2019-03-08T02:15:24.165Z,99039.00
2019-03-08T02:17:53.068Z,99034.00
2019-03-08T02:20:22.043Z,99034.00
2019-03-08T02:22:50.272Z,99040.00
2019-03-08T02:25:18.830Z,99031.00
2019-03-08T02:27:47.218Z,99033.00
2019-03-08T02:30:16.481Z,99037.00
2019-03-08T02:32:45.330Z,99040.00
2019-03-08T02:35:14.867Z,99034.00
2019-03-08T02:37:43.511Z,99050.00
2019-03-08T02:40:43.532Z,99052.00
2019-03-08T02:43:15.202Z,99039.00
2019-03-08T02:45:44.043Z,99036.00
2019-03-08T02:48:12.341Z,99030.00
2019-03-08T02:50:41.956Z,99030.00
2019-03-08T02:53:10.685Z,99033.00
2019-03-08T02:55:39.073Z,99034.00
2019-03-08T02:58:07.492Z,99034.00
2019-03-08T03:00:45.741Z,99033.00
2019-03-08T03:03:15.207Z,99038.00
2019-03-08T03:05:43.917Z,99038.00
2019-03-08T03:08:12.280Z,99029.00
2019-03-08T03:10:40.618Z,99044.00
2019-03-08T03:13:09.395Z,99031.00
2019-03-08T03:15:37.843Z,99044.00
2019-03-08T03:18:06.766Z,99048.00
2019-03-08T03:20:35.177Z,99041.00
2019-03-08T03:23:03.763Z,99055.00
2019-03-08T03:25:32.518Z,99064.00
2019-03-08T03:28:01.178Z,99061.00
2019-03-08T03:30:30.057Z,99062.00
2019-03-08T03:32:58.692Z,99060.00
2019-03-08T03:35:27.379Z,99059.00
2019-03-08T03:37:55.838Z,99067.00
2019-03-08T03:40:24.647Z,99073.00
2019-03-08T03:42:53.664Z,99065.00
2019-03-08T03:45:22.198Z,99066.00
2019-03-08T03:47:51.014Z,99067.00
2019-03-08T03:50:19.648Z,99075.00
2019-03-08T03:52:48.083Z,99062.00
2019-03-08T03:55:16.791Z,99070.00
2019-03-08T03:57:45.059Z,99068.00
2019-03-08T04:00:15.139Z,99067.00
2019-03-08T04:02:43.796Z,99067.00
2019-03-08T04:05:12.399Z,99058.00
2019-03-08T04:07:41.066Z,99066.00
2019-03-08T04:10:11.001Z,99065.00
2019-03-08T04:12:39.675Z,99060.00
2019-03-08T04:15:10.875Z,99063.00
2019-03-08T04:17:39.538Z,99064.00
2019-03-08T04:20:11.255Z,99062.00
2019-03-08T04:22:39.651Z,99068.00
2019-03-08T04:25:08.097Z,99065.00
2019-03-08T04:27:36.454Z,99072.00
2019-03-08T04:30:05.426Z,99065.00
2019-03-08T04:32:33.776Z,99066.00
2019-03-08T04:35:02.254Z,99074.00
2019-03-08T04:37:30.625Z,99066.00
2019-03-08T04:39:59.216Z,99067.00
2019-03-08T04:42:27.672Z,99064.00
2019-03-08T04:44:56.038Z,99077.00
2019-03-08T04:47:24.690Z,99073.00
2019-03-08T04:49:53.402Z,99082.00
2019-03-08T04:52:21.790Z,99069.00
2019-03-08T04:54:50.473Z,99070.00
2019-03-08T04:57:18.781Z,99066.00
2019-03-08T04:59:49.037Z,99069.00
2019-03-08T05:02:17.442Z,99073.00
2019-03-08T05:04:45.834Z,99066.00
2019-03-08T05:07:14.256Z,99072.00
2019-03-08T05:09:42.556Z,99076.00
2019-03-08T05:12:10.994Z,99072.00
2019-03-08T05:14:39.347Z,99072.00
2019-03-08T05:17:07.753Z,99075.00
2019-03-08T05:19:35.997Z,99071.00
2019-03-08T05:22:04.503Z,99075.00
2019-03-08T05:24:33.301Z,99078.00
2019-03-08T05:27:01.928Z,99069.00
2019-03-08T05:29:30.892Z,99069.00
2019-03-08T05:31:59.296Z,99066.00
2019-03-08T05:34:27.665Z,99065.00
2019-03-08T05:36:56.051Z,99058.00
2019-03-08T05:39:24.470Z,99058.00
2019-03-08T05:41:53.068Z,99054.00
2019-03-08T05:44:21.862Z,99054.00
2019-03-08T05:46:50.245Z,99055.00
2019-03-08T05:49:18.846Z,99051.00
2019-03-08T05:51:47.604Z,99064.00
2019-03-08T05:54:16.380Z,99058.00
2019-03-08T05:56:44.971Z,99057.00
2019-03-08T05:59:13.673Z,99059.00
2019-03-08T06:01:42.697Z,99062.00
2019-03-08T06:04:11.432Z,99065.00
2019-03-08T06:06:39.953Z,99070.00
2019-03-08T06:09:08.604Z,99067.00
2019-03-08T06:11:37.271Z,99071.00
2019-03-08T06:14:05.812Z,99078.00
2019-03-08T06:16:34.431Z,99072.00
2019-03-08T06:19:03.224Z,99067.00
2019-03-08T06:21:32.417Z,99072.00
2019-03-08T06:24:01.740Z,99076.00
2019-03-08T06:26:30.777Z,99067.00
2019-03-08T06:28:59.327Z,99082.00
2019-03-08T06:31:27.833Z,99080.00
2019-03-08T06:33:56.622Z,99083.00
2019-03-08T06:36:25.186Z,99078.00
2019-03-08T06:38:54.103Z,99079.00
2019-03-08T06:41:22.599Z,99081.00
2019-03-08T06:43:51.588Z,99074.00
2019-03-08T06:46:20.223Z,99069.00
2019-03-08T06:48:48.663Z,99067.00
2019-03-08T06:51:17.639Z,99063.00
2019-03-08T06:53:46.919Z,99076.00
2019-03-08T06:56:15.725Z,99064.00
2019-03-08T06:59:02.071Z,99071.00
2019-03-08T07:01:34.155Z,99074.00
2019-03-08T07:04:03.140Z,99083.00
2019-03-08T07:06:31.883Z,99084.00
2019-03-08T07:09:00.640Z,99089.00
2019-03-08T07:11:30.049Z,99092.00
2019-03-08T07:13:58.874Z,99099.00
2019-03-08T07:16:27.812Z,99105.00
2019-03-08T07:18:56.572Z,99097.00
2019-03-08T07:21:30.042Z,99099.00
2019-03-08T07:24:33.321Z,99100.00
2019-03-08T07:27:24.533Z,99116.00
2019-03-08T07:30:11.446Z,99095.00
2019-03-08T07:32:59.258Z,99097.00
2019-03-08T07:35:35.615Z,99099.00
2019-03-08T07:38:23.691Z,99090.00
2019-03-08T07:40:58.821Z,99099.00
2019-03-08T07:43:38.993Z,99113.00
2019-03-08T07:46:24.095Z,99118.00
2019-03-08T07:49:12.686Z,99117.00
2019-03-08T07:52:09.874Z,99114.00
2019-03-08T07:55:01.581Z,99117.00
2019-03-08T07:57:55.665Z,99119.00
2019-03-08T08:00:38.901Z,99117.00
2019-03-08T08:03:16.145Z,99118.00
2019-03-08T08:06:05.004Z,99127.00
2019-03-08T08:09:11.089Z,99135.00
2019-03-08T08:11:57.694Z,99130.00
2019-03-08T08:14:44.653Z,99148.00
2019-03-08T08:17:44.835Z,99144.00
2019-03-08T08:20:38.992Z,99141.00
2019-03-08T08:23:12.941Z,99131.00
2019-03-08T08:26:19.058Z,99150.00
2019-03-08T08:29:16.126Z,99147.00
2019-03-08T08:31:58.980Z,99150.00
2019-03-08T08:34:43.812Z,99139.00
2019-03-08T08:37:30.565Z,99142.00
2019-03-08T08:40:12.394Z,99147.00
2019-03-08T08:42:49.198Z,99151.00
2019-03-08T08:45:55.934Z,99140.00
2019-03-08T08:48:46.760Z,99155.00
2019-03-08T08:51:38.148Z,99134.00
2019-03-08T08:54:26.324Z,99136.00
2019-03-08T08:57:15.132Z,99140.00
2019-03-08T09:00:05.913Z,99119.00
2019-03-08T09:03:04.391Z,99131.00
2019-03-08T09:06:01.576Z,99127.00
2019-03-08T09:08:40.636Z,99103.00
2019-03-08T09:11:20.235Z,99121.00
2019-03-08T09:14:05.800Z,99111.00
2019-03-08T09:16:57.636Z,99125.00
2019-03-08T09:20:01.525Z,99121.00
2019-03-08T09:22:34.904Z,99123.00
2019-03-08T09:25:10.854Z,99119.00
2019-03-08T09:27:45.574Z,99129.00
2019-03-08T09:30:21.342Z,99125.00
2019-03-08T09:32:59.574Z,99124.00
2019-03-08T09:35:38.805Z,99119.00
2019-03-08T09:38:18.182Z,99122.00
2019-03-08T09:41:21.511Z,99114.00
2019-03-08T09:44:15.422Z,99106.00
2019-03-08T09:47:03.725Z,99108.00
2019-03-08T09:49:54.885Z,99105.00
2019-03-08T09:52:42.433Z,99094.00
2019-03-08T09:55:36.304Z,99125.00
2019-03-08T09:58:28.938Z,99106.00
2019-03-08T10:01:26.462Z,99094.00
2019-03-08T10:04:26.585Z,99120.00
2019-03-08T10:07:20.328Z,99098.00
2019-03-08T10:10:08.313Z,99091.00
2019-03-08T10:12:56.688Z,99103.00
2019-03-08T10:16:00.104Z,99093.00
2019-03-08T10:18:57.403Z,99104.00
2019-03-08T10:21:44.181Z,99103.00
2019-03-08T10:24:30.989Z,99091.00
2019-03-08T10:27:17.933Z,99101.00
2019-03-08T10:30:04.645Z,99069.00
2019-03-08T10:32:43.060Z,99098.00
2019-03-08T10:35:30.263Z,99101.00
2019-03-08T10:38:22.702Z,99103.00
2019-03-08T10:40:59.459Z,99112.00
2019-03-08T10:43:51.124Z,99102.00
2019-03-08T10:46:42.296Z,99119.00
2019-03-08T10:49:28.900Z,99107.00
2019-03-08T10:52:20.107Z,99093.00
2019-03-08T10:55:02.859Z,99099.00
2019-03-08T10:57:44.203Z,99105.00
2019-03-08T11:00:27.891Z,99104.00
2019-03-08T11:03:14.813Z,99111.00
2019-03-08T11:05:55.126Z,99124.00
2019-03-08T11:08:41.846Z,99103.00
2019-03-08T11:11:32.919Z,99118.00
2019-03-08T11:14:10.299Z,99106.00
2019-03-08T11:16:49.550Z,99105.00
2019-03-08T11:19:30.629Z,99099.00
2019-03-08T11:22:17.610Z,99122.00
2019-03-08T11:25:07.492Z,99093.00
2019-03-08T11:27:47.237Z,99091.00
2019-03-08T11:30:35.387Z,99083.00
2019-03-08T11:33:15.508Z,99098.00
2019-03-08T11:36:09.844Z,99089.00
2019-03-08T11:38:50.561Z,99095.00
2019-03-08T11:41:29.798Z,99087.00
2019-03-08T11:44:04.287Z,99083.00
2019-03-08T11:46:55.592Z,99089.00
2019-03-08T11:49:34.417Z,99087.00
2019-03-08T11:52:21.234Z,99087.00
2019-03-08T11:55:07.772Z,99119.00
2019-03-08T11:57:54.953Z,99080.00
2019-03-08T12:00:53.233Z,99090.00
2019-03-08T12:03:38.121Z,99079.00
2019-03-08T12:06:24.994Z,99079.00
2019-03-08T12:09:13.601Z,99070.00
2019-03-08T12:12:07.112Z,99081.00
2019-03-08T12:15:10.758Z,99069.00
2019-03-08T12:17:59.082Z,99075.00
2019-03-08T12:20:36.321Z,99082.00
2019-03-08T12:23:22.277Z,99071.00
2019-03-08T12:26:19.518Z,99072.00
2019-03-08T12:28:58.661Z,99062.00
2019-03-08T12:31:45.532Z,99075.00
2019-03-08T12:34:32.161Z,99073.00
2019-03-08T12:37:23.421Z,99080.00
2019-03-08T12:40:01.048Z,99076.00
2019-03-08T12:42:47.370Z,99090.00
2019-03-08T12:45:39.715Z,99080.00
2019-03-08T12:48:34.359Z,99081.00
2019-03-08T12:51:22.708Z,99098.00
2019-03-08T12:54:09.639Z,99107.00
2019-03-08T12:56:54.934Z,99100.00
2019-03-08T12:59:45.835Z,99114.00
2019-03-08T13:02:42.465Z,99115.00
2019-03-08T13:05:29.966Z,99112.00
2019-03-08T13:08:19.817Z,99107.00
2019-03-08T13:10:48.298Z,99123.00
2019-03-08T13:13:16.955Z,99105.00
2019-03-08T13:15:45.522Z,99124.00
2019-03-08T13:18:14.223Z,99126.00
2019-03-08T13:20:42.940Z,99136.00
2019-03-08T13:23:12.687Z,99141.00
2019-03-08T13:25:41.425Z,99145.00
2019-03-08T13:28:10.655Z,99140.00
2019-03-08T13:30:39.493Z,99143.00
2019-03-08T13:33:08.069Z,99132.00
2019-03-08T13:35:36.647Z,99137.00
2019-03-08T13:38:06.911Z,99147.00
2019-03-08T13:40:35.976Z,99154.00
2019-03-08T13:43:04.990Z,99152.00
2019-03-08T13:45:33.580Z,99140.00
2019-03-08T13:48:02.701Z,99142.00
2019-03-08T13:50:31.381Z,99141.00
2019-03-08T13:52:59.863Z,99140.00
2019-03-08T13:55:28.719Z,99149.00
2019-03-08T13:57:57.569Z,99148.00
2019-03-08T14:00:26.542Z,99144.00
2019-03-08T14:02:55.470Z,99146.00
2019-03-08T14:05:24.210Z,99146.00
2019-03-08T14:07:52.747Z,99160.00
2019-03-08T14:10:21.465Z,99166.00
2019-03-08T14:12:50.230Z,99134.00
2019-03-08T14:15:19.019Z,99163.00
2019-03-08T14:17:47.758Z,99162.00
2019-03-08T14:20:17.764Z,99164.00
2019-03-08T14:22:46.461Z,99161.00
2019-03-08T14:25:15.254Z,99177.00
2019-03-08T14:27:44.199Z,99190.00
2019-03-08T14:30:15.311Z,99171.00
2019-03-08T14:32:44.054Z,99159.00
2019-03-08T14:35:13.123Z,99165.00
2019-03-08T14:37:42.066Z,99187.00
2019-03-08T14:40:43.355Z,99156.00
2019-03-08T14:43:23.593Z,99176.00
2019-03-08T14:45:57.655Z,99151.00
2019-03-08T14:48:26.750Z,99184.00
2019-03-08T14:50:55.280Z,99181.00
2019-03-08T14:53:23.987Z,99188.00
2019-03-08T14:55:55.082Z,99196.00
2019-03-08T14:58:23.025Z,99192.00
2019-03-08T15:00:51.871Z,99201.00
2019-03-08T15:03:23.698Z,99185.00
2019-03-08T15:05:51.135Z,99205.00
2019-03-08T15:08:19.689Z,99200.00
2019-03-08T15:10:51.128Z,99206.00
2019-03-08T15:13:20.188Z,99208.00
2019-03-08T15:15:49.301Z,99207.00
2019-03-08T15:18:17.982Z,99209.00
2019-03-08T15:20:46.862Z,99223.00
2019-03-08T15:23:17.407Z,99232.00
2019-03-08T15:25:49.092Z,99245.00
2019-03-08T15:28:16.514Z,99238.00
2019-03-08T15:30:45.945Z,99248.00
2019-03-08T15:33:14.647Z,99233.00
2019-03-08T15:35:43.624Z,99241.00
2019-03-08T15:38:12.386Z,99240.00
2019-03-08T15:40:40.977Z,99226.00
2019-03-08T15:43:13.232Z,99238.00
2019-03-08T15:45:44.371Z,99286.00
2019-03-08T15:48:14.610Z,99236.00
2019-03-08T15:50:46.729Z,99251.00
2019-03-08T15:53:13.875Z,99243.00
2019-03-08T15:55:52.293Z,99270.00
2019-03-08T15:58:13.472Z,99249.00
2019-03-08T16:00:42.463Z,99251.00
2019-03-08T16:03:11.174Z,99271.00
2019-03-08T16:05:39.793Z,99262.00
2019-03-08T16:08:08.757Z,99255.00
2019-03-08T16:10:37.274Z,99267.00
2019-03-08T16:13:06.326Z,99273.00
2019-03-08T16:15:36.041Z,99269.00
2019-03-08T16:18:04.879Z,99278.00
2019-03-08T16:20:37.396Z,99281.00
2019-03-08T16:23:06.602Z,99285.00
2019-03-08T16:25:35.095Z,99287.00
2019-03-08T16:28:03.472Z,99283.00
2019-03-08T16:30:34.562Z,99306.00
2019-03-08T16:33:18.970Z,99310.00
2019-03-08T16:36:02.965Z,99315.00
2019-03-08T16:38:46.160Z,99315.00
2019-03-08T16:41:43.115Z,99325.00
2019-03-08T16:44:30.998Z,99325.00
2019-03-08T16:47:24.934Z,99336.00
2019-03-08T16:50:10.608Z,99339.00
2019-03-08T16:52:46.419Z,99346.00
2019-03-08T16:55:31.288Z,99347.00
2019-03-08T16:58:29.079Z,99356.00
2019-03-08T17:01:26.390Z,99363.00
2019-03-08T17:04:17.994Z,99348.00
2019-03-08T17:07:05.093Z,99363.00
2019-03-08T17:09:59.175Z,99350.00
2019-03-08T17:12:59.469Z,99367.00
2019-03-08T17:15:43.323Z,99404.00
2019-03-08T17:18:26.959Z,99428.00
2019-03-08T17:21:30.122Z,99449.00
2019-03-08T17:24:06.406Z,99451.00
2019-03-08T17:26:45.916Z,99454.00
2019-03-08T17:29:35.701Z,99458.00
2019-03-08T17:32:29.776Z,99472.00
2019-03-08T17:35:17.647Z,99463.00
2019-03-08T17:37:51.220Z,99470.00
2019-03-08T17:40:36.606Z,99466.00
2019-03-08T17:43:24.528Z,99471.00
2019-03-08T17:46:15.464Z,99474.00
2019-03-08T17:48:56.847Z,99472.00
2019-03-08T17:51:47.771Z,99483.00
2019-03-08T17:54:27.028Z,99489.00
2019-03-08T17:57:14.896Z,99497.00
2019-03-08T18:00:01.483Z,99490.00
2019-03-08T18:02:35.676Z,99493.00
2019-03-08T18:05:15.557Z,99494.00
2019-03-08T18:08:09.182Z,99501.00
2019-03-08T18:10:59.714Z,99508.00
2019-03-08T18:13:49.432Z,99505.00
2019-03-08T18:16:30.997Z,99514.00
2019-03-08T18:19:08.191Z,99503.00
2019-03-08T18:22:08.362Z,99504.00
2019-03-08T18:24:54.507Z,99505.00
2019-03-08T18:27:54.995Z,99511.00
2019-03-08T18:30:46.170Z,99515.00
2019-03-08T18:33:29.174Z,99505.00
2019-03-08T18:36:22.652Z,99508.00
2019-03-08T18:39:06.696Z,99509.00
2019-03-08T18:41:54.924Z,99513.00
2019-03-08T18:44:44.871Z,99516.00
2019-03-08T18:47:41.606Z,99522.00
2019-03-08T18:50:38.126Z,99531.00
2019-03-08T18:53:29.024Z,99535.00
2019-03-08T18:56:16.729Z,99526.00
2019-03-08T18:59:10.678Z,99541.00
2019-03-08T19:01:55.541Z,99545.00
2019-03-08T19:05:01.588Z,99550.00
2019-03-08T19:07:55.445Z,99550.00
2019-03-08T19:10:46.350Z,99570.00
2019-03-08T19:13:33.844Z,99570.00
2019-03-08T19:16:21.748Z,99568.00
2019-03-08T19:18:58.905Z,99576.00
2019-03-08T19:21:55.771Z,99573.00
2019-03-08T19:24:39.498Z,99597.00
2019-03-08T19:27:27.337Z,99596.00
2019-03-08T19:30:15.275Z,99602.00
2019-03-08T19:33:06.323Z,99616.00
2019-03-08T19:36:00.780Z,99607.00
2019-03-08T19:38:52.881Z,99612.00
2019-03-08T19:41:46.977Z,99615.00
2019-03-08T19:44:23.001Z,99620.00
2019-03-08T19:47:25.780Z,99615.00
2019-03-08T19:50:12.358Z,99620.00
2019-03-08T19:53:03.417Z,99636.00
2019-03-08T19:55:56.935Z,99643.00
2019-03-08T19:58:39.435Z,99633.00
2019-03-08T20:01:34.807Z,99650.00
2019-03-08T20:04:12.008Z,99646.00
2019-03-08T20:07:02.678Z,99653.00
2019-03-08T20:09:50.945Z,99656.00
2019-03-08T20:12:33.696Z,99655.00
2019-03-08T20:15:20.712Z,99666.00
2019-03-08T20:18:15.007Z,99672.00
2019-03-08T20:21:04.643Z,99675.00
2019-03-08T20:24:02.042Z,99685.00
2019-03-08T20:26:42.849Z,99688.00
2019-03-08T20:29:23.649Z,99703.00
2019-03-08T20:32:14.322Z,99700.00
2019-03-08T20:34:59.933Z,99699.00
2019-03-08T20:37:59.909Z,99707.00
2019-03-08T20:40:37.550Z,99687.00
2019-03-08T20:43:17.122Z,99711.00
2019-03-08T20:46:03.176Z,99721.00
2019-03-08T20:48:31.939Z,99717.00
2019-03-08T20:51:00.401Z,99726.00
2019-03-08T20:53:28.959Z,99723.00
2019-03-08T20:55:57.645Z,99727.00
2019-03-08T20:58:25.997Z,99725.00
2019-03-08T21:00:54.411Z,99739.00
2019-03-08T21:03:22.811Z,99736.00
2019-03-08T21:05:51.294Z,99743.00
2019-03-08T21:08:19.874Z,99734.00
2019-03-08T21:10:49.389Z,99745.00
2019-03-08T21:13:18.145Z,99739.00
2019-03-08T21:15:46.818Z,99741.00
2019-03-08T21:18:15.588Z,99742.00
2019-03-08T21:20:44.232Z,99747.00
2019-03-08T21:23:12.596Z,99753.00
2019-03-08T21:25:41.037Z,99765.00
2019-03-08T21:28:09.697Z,99770.00
2019-03-08T21:30:38.327Z,99766.00
2019-03-08T21:33:06.757Z,99772.00
2019-03-08T21:35:35.386Z,99774.00
2019-03-08T21:38:03.843Z,99776.00
2019-03-08T21:40:32.492Z,99781.00
2019-03-08T21:43:01.691Z,99782.00
2019-03-08T21:45:30.120Z,99785.00
2019-03-08T21:47:59.107Z,99785.00
2019-03-08T21:50:27.554Z,99782.00
2019-03-08T21:52:56.223Z,99787.00
2019-03-08T21:55:24.698Z,99790.00
2019-03-08T21:57:53.274Z,99782.00
2019-03-08T22:00:22.470Z,99784.00
2019-03-08T22:02:51.219Z,99790.00
2019-03-08T22:05:23.167Z,99788.00
2019-03-08T22:07:51.834Z,99796.00
2019-03-08T22:10:29.657Z,99810.00
2019-03-08T22:12:58.319Z,99808.00
2019-03-08T22:15:26.632Z,99799.00
2019-03-08T22:17:55.036Z,99807.00
2019-03-08T22:20:23.924Z,99805.00
2019-03-08T22:22:52.404Z,99812.00
2019-03-08T22:25:22.957Z,99817.00
2019-03-08T22:27:51.686Z,99805.00
2019-03-08T22:30:20.369Z,99823.00
2019-03-08T22:32:49.359Z,99812.00
2019-03-08T22:35:18.497Z,99822.00
2019-03-08T22:37:46.693Z,99823.00
2019-03-08T22:40:15.410Z,99821.00
2019-03-08T22:42:43.840Z,99833.00
2019-03-08T22:45:12.834Z,99835.00
2019-03-08T22:47:41.509Z,99835.00
2019-03-08T22:50:10.429Z,99836.00
2019-03-08T22:52:39.474Z,99839.00
2019-03-08T22:55:09.224Z,99831.00
2019-03-08T22:57:39.324Z,99838.00
2019-03-08T23:00:26.866Z,99836.00
2019-03-08T23:02:55.416Z,99831.00
2019-03-08T23:05:24.594Z,99840.00
2019-03-08T23:07:53.095Z,99834.00
2019-03-08T23:10:21.469Z,99834.00
2019-03-08T23:12:50.183Z,99843.00
2019-03-08T23:15:18.796Z,99841.00
2019-03-08T23:17:47.245Z,99841.00
2019-03-08T23:20:15.818Z,99832.00
2019-03-08T23:22:44.618Z,99827.00
2019-03-08T23:25:13.338Z,99830.00
2019-03-08T23:27:49.027Z,99840.00
2019-03-08T23:30:29.073Z,99834.00
2019-03-08T23:32:57.760Z,99836.00
2019-03-08T23:35:26.149Z,99849.00
2019-03-08T23:37:54.837Z,99851.00
2019-03-08T23:40:23.288Z,99845.00
2019-03-08T23:42:51.607Z,99855.00
2019-03-08T23:45:19.859Z,99858.00
2019-03-08T23:47:48.451Z,99847.00
2019-03-08T23:50:16.734Z,99844.00
2019-03-08T23:52:45.131Z,99842.00
2019-03-08T23:55:13.754Z,99855.00
2019-03-08T23:57:42.222Z,99854.00
